Time;durP1;ratioP1;P1;durP2;ratioP2;P2;SDS_P1;SDS_P2;PMS_P1;PMS_P2;Temp;Humidity;BMP_temperature;BMP_pressure;BME280_temperature;BME280_humidity;BME280_pressure;Samples;Min_cycle;Max_cycle;Signal;HPM_P1;HPM_P2
2021/12/18 00:01:54;;;;;;;;;;;21.00;48.30;;;;;;5090889;23;20737;-72
2021/12/18 00:04:20;;;;;;;;;;;20.90;48.30;;;;;;5051295;23;19944;-63
2021/12/18 00:06:45;;;;;;;;;;;20.90;48.40;;;;;;5003671;28;20377;-63
2021/12/18 00:09:11;;;;;;;;;;;20.90;48.50;;;;;;5003401;28;20320;-63
2021/12/18 00:11:36;;;;;;;;;;;20.80;48.60;;;;;;5003013;28;20012;-64
2021/12/18 00:14:02;;;;;;;;;;;20.80;48.60;;;;;;5004426;28;19925;-63
2021/12/18 00:16:29;;;;;;;;;;;20.80;49.20;;;;;;5003340;28;22271;-63
2021/12/18 00:18:57;;;;;;;;;;;20.80;48.60;;;;;;5003461;28;19922;-63
2021/12/18 00:21:23;;;;;;;;;;;20.80;48.50;;;;;;5002141;28;20002;-64
2021/12/18 00:23:48;;;;;;;;;;;20.80;48.60;;;;;;5002169;28;20339;-63
2021/12/18 00:26:14;;;;;;;;;;;20.70;49.20;;;;;;4987734;28;19945;-63
2021/12/18 00:28:39;;;;;;;;;;;20.70;48.70;;;;;;5002565;28;20040;-63
2021/12/18 00:31:05;;;;;;;;;;;20.70;48.70;;;;;;5003747;28;19966;-63
2021/12/18 00:33:31;;;;;;;;;;;20.70;48.80;;;;;;5015733;28;19914;-63
2021/12/18 00:35:57;;;;;;;;;;;20.60;48.70;;;;;;5001631;28;20331;-63
2021/12/18 00:38:28;;;;;;;;;;;20.60;48.80;;;;;;5004335;28;20025;-63
2021/12/18 00:43:41;;;;;;;;;;;20.60;48.90;;;;;;5002145;28;19956;-63
2021/12/18 00:46:07;;;;;;;;;;;20.60;48.80;;;;;;5000693;28;19913;-64
2021/12/18 00:48:32;;;;;;;;;;;20.60;48.90;;;;;;4986725;28;19920;-63
2021/12/18 00:50:58;;;;;;;;;;;20.50;48.80;;;;;;5001143;28;19961;-63
2021/12/18 00:53:23;;;;;;;;;;;20.50;48.90;;;;;;5004873;28;20323;-63
2021/12/18 00:55:51;;;;;;;;;;;20.50;48.90;;;;;;5002879;28;20695;-63
2021/12/18 00:58:16;;;;;;;;;;;20.50;48.90;;;;;;5002011;28;19928;-63
2021/12/18 01:00:42;;;;;;;;;;;20.50;48.90;;;;;;5003507;28;19992;-63
2021/12/18 01:03:16;;;;;;;;;;;20.50;48.90;;;;;;5000802;28;20333;-63
2021/12/18 01:05:41;;;;;;;;;;;20.40;48.90;;;;;;5028369;28;19922;-63
2021/12/18 01:08:07;;;;;;;;;;;20.40;49.00;;;;;;5004146;28;19914;-64
2021/12/18 01:10:50;;;;;;;;;;;20.40;49.60;;;;;;5034417;28;19920;-63
2021/12/18 01:13:21;;;;;;;;;;;20.40;49.00;;;;;;5010915;28;19925;-63
2021/12/18 01:15:51;;;;;;;;;;;20.40;49.00;;;;;;5030700;28;20007;-63
2021/12/18 01:23:44;;;;;;;;;;;20.30;49.10;;;;;;5003998;28;19983;-63
2021/12/18 01:26:10;;;;;;;;;;;20.30;48.90;;;;;;5032827;28;19917;-63
2021/12/18 01:28:35;;;;;;;;;;;20.30;49.00;;;;;;5034022;28;20376;-63
2021/12/18 01:31:01;;;;;;;;;;;20.30;49.00;;;;;;5001964;28;19983;-63
2021/12/18 01:33:26;;;;;;;;;;;20.30;49.00;;;;;;5004775;28;19913;-63
2021/12/18 01:35:53;;;;;;;;;;;20.30;49.00;;;;;;5000611;28;19943;-63
2021/12/18 01:38:21;;;;;;;;;;;20.20;49.00;;;;;;5002242;28;20464;-63
2021/12/18 01:40:46;;;;;;;;;;;20.20;49.00;;;;;;5032528;28;19929;-63
2021/12/18 01:46:09;;;;;;;;;;;20.20;49.00;;;;;;5001247;28;19988;-63
2021/12/18 01:51:23;;;;;;;;;;;20.20;48.90;;;;;;5000564;28;19944;-63
2021/12/18 01:53:50;;;;;;;;;;;20.20;49.00;;;;;;5003979;28;19920;-62
2021/12/18 01:56:16;;;;;;;;;;;20.20;49.00;;;;;;5003723;28;20304;-63
2021/12/18 01:58:44;;;;;;;;;;;20.20;48.90;;;;;;5001668;28;20004;-63
2021/12/18 02:01:09;;;;;;;;;;;20.20;48.90;;;;;;5003069;28;19913;-63
2021/12/18 02:03:35;;;;;;;;;;;20.20;48.90;;;;;;5002627;28;19936;-63
2021/12/18 02:06:00;;;;;;;;;;;20.20;49.00;;;;;;5001532;28;19976;-63
2021/12/18 02:08:26;;;;;;;;;;;20.20;49.00;;;;;;5003557;28;19913;-63
2021/12/18 02:10:58;;;;;;;;;;;20.20;49.00;;;;;;5001569;28;19920;-63
2021/12/18 02:14:23;;;;;;;;;;;20.20;49.00;;;;;;5008553;28;20012;-63
2021/12/18 02:21:38;;;;;;;;;;;20.30;48.70;;;;;;5001248;28;19994;-63
2021/12/18 02:24:03;;;;;;;;;;;20.40;48.50;;;;;;5000897;28;19936;-63
2021/12/18 02:26:29;;;;;;;;;;;20.50;48.40;;;;;;5003187;28;19975;-63
2021/12/18 02:28:57;;;;;;;;;;;20.50;48.30;;;;;;5002412;28;20008;-63
2021/12/18 02:31:23;;;;;;;;;;;20.60;48.40;;;;;;5001584;28;19972;-63
2021/12/18 02:33:48;;;;;;;;;;;20.70;48.30;;;;;;5032563;28;19957;-62
2021/12/18 02:36:22;;;;;;;;;;;20.90;48.10;;;;;;5003035;28;19922;-63
2021/12/18 02:43:59;;;;;;;;;;;21.30;47.40;;;;;;5007592;28;20509;-63
2021/12/18 02:46:25;;;;;;;;;;;21.40;47.10;;;;;;5000915;28;20288;-64
2021/12/18 02:48:51;;;;;;;;;;;21.50;46.90;;;;;;5004223;28;19914;-63
2021/12/18 02:51:16;;;;;;;;;;;21.60;46.70;;;;;;5002868;28;20396;-63
2021/12/18 02:53:43;;;;;;;;;;;21.60;46.50;;;;;;5033536;28;19913;-63
2021/12/18 02:56:12;;;;;;;;;;;21.70;46.40;;;;;;4999707;28;20297;-64
2021/12/18 02:58:38;;;;;;;;;;;21.80;46.40;;;;;;5003498;28;20972;-63
2021/12/18 03:01:04;;;;;;;;;;;21.80;46.00;;;;;;5004812;28;19914;-64
2021/12/18 03:03:33;;;;;;;;;;;21.90;46.00;;;;;;5006637;28;19925;-63
2021/12/18 03:09:50;;;;;;;;;;;21.90;46.00;;;;;;5006656;28;19920;-63
2021/12/18 03:24:40;;;;;;;;;;;21.90;45.80;;;;;;5035783;28;20455;-63
2021/12/18 03:27:07;;;;;;;;;;;21.90;45.80;;;;;;5011809;28;19918;-63
2021/12/18 03:29:33;;;;;;;;;;;21.90;45.80;;;;;;5007037;28;19964;-64
2021/12/18 03:31:58;;;;;;;;;;;21.90;45.80;;;;;;5004709;28;20587;-64
2021/12/18 03:34:24;;;;;;;;;;;21.90;45.80;;;;;;5008834;28;19955;-63
2021/12/18 03:36:51;;;;;;;;;;;21.90;45.90;;;;;;5006795;28;19932;-63
2021/12/18 03:39:16;;;;;;;;;;;21.90;46.00;;;;;;5003202;28;19953;-63
2021/12/18 03:41:42;;;;;;;;;;;21.80;45.90;;;;;;5006158;28;20370;-64
2021/12/18 03:44:07;;;;;;;;;;;21.80;45.90;;;;;;5033573;28;19972;-64
2021/12/18 03:46:33;;;;;;;;;;;21.80;45.90;;;;;;5005387;28;19922;-63
2021/12/18 03:48:58;;;;;;;;;;;21.70;46.50;;;;;;5006464;28;19918;-63
2021/12/18 03:51:24;;;;;;;;;;;21.70;45.80;;;;;;4999786;28;19964;-63
2021/12/18 03:53:49;;;;;;;;;;;21.70;46.00;;;;;;5005569;28;20000;-63
2021/12/18 03:56:14;;;;;;;;;;;21.70;46.10;;;;;;5034077;28;20362;-63
2021/12/18 03:58:40;;;;;;;;;;;21.70;46.20;;;;;;5004718;28;19914;-63
2021/12/18 04:01:05;;;;;;;;;;;21.70;46.20;;;;;;5003661;28;19913;-64
2021/12/18 04:03:31;;;;;;;;;;;21.60;46.30;;;;;;5002927;28;19917;-64
2021/12/18 04:05:56;;;;;;;;;;;21.60;46.30;;;;;;5002867;28;20459;-63
2021/12/18 04:08:22;;;;;;;;;;;21.70;46.40;;;;;;5005406;28;19913;-63
2021/12/18 04:10:47;;;;;;;;;;;21.60;46.30;;;;;;5006504;28;19913;-63
2021/12/18 04:13:12;;;;;;;;;;;21.60;46.20;;;;;;5003745;28;19921;-63
2021/12/18 04:15:38;;;;;;;;;;;21.60;46.20;;;;;;5013194;28;19909;-63
2021/12/18 04:18:04;;;;;;;;;;;21.60;46.20;;;;;;5043739;28;19917;-63
2021/12/18 04:20:29;;;;;;;;;;;21.60;46.20;;;;;;5012498;28;19998;-63
2021/12/18 04:22:55;;;;;;;;;;;21.60;46.20;;;;;;5012365;28;19921;-64
2021/12/18 04:25:20;;;;;;;;;;;21.60;46.20;;;;;;5011812;28;19936;-64
2021/12/18 04:27:46;;;;;;;;;;;21.60;46.20;;;;;;5043677;28;19936;-64
2021/12/18 04:30:11;;;;;;;;;;;21.60;46.10;;;;;;5024402;28;20067;-63
2021/12/18 04:32:37;;;;;;;;;;;21.50;46.30;;;;;;5044982;28;19909;-63
2021/12/18 04:35:02;;;;;;;;;;;21.50;46.40;;;;;;5030931;28;19925;-65
2021/12/18 04:37:28;;;;;;;;;;;21.40;46.50;;;;;;5008164;28;19920;-63
2021/12/18 04:39:53;;;;;;;;;;;21.40;46.60;;;;;;5010944;28;19945;-63
2021/12/18 04:42:20;;;;;;;;;;;21.30;46.70;;;;;;5013078;28;19913;-63
2021/12/18 04:44:45;;;;;;;;;;;21.20;47.40;;;;;;5026849;28;19917;-63
2021/12/18 04:47:11;;;;;;;;;;;21.20;46.90;;;;;;5012225;28;19909;-63
2021/12/18 04:49:36;;;;;;;;;;;21.20;47.10;;;;;;5011359;28;19957;-63
2021/12/18 04:52:02;;;;;;;;;;;21.20;47.10;;;;;;5012199;28;19968;-63
2021/12/18 04:54:28;;;;;;;;;;;21.20;47.00;;;;;;5040652;28;20401;-63
2021/12/18 04:56:53;;;;;;;;;;;21.20;47.00;;;;;;5038442;28;20334;-63
2021/12/18 04:59:19;;;;;;;;;;;21.20;47.00;;;;;;5035254;28;20031;-63
2021/12/18 05:01:44;;;;;;;;;;;21.30;47.00;;;;;;5003999;28;19933;-63
2021/12/18 05:04:11;;;;;;;;;;;21.30;46.80;;;;;;5004082;28;19925;-63
2021/12/18 05:06:39;;;;;;;;;;;21.30;46.80;;;;;;4986478;28;20314;-64
2021/12/18 05:09:05;;;;;;;;;;;21.40;46.70;;;;;;5002157;28;19929;-63
2021/12/18 05:11:30;;;;;;;;;;;21.40;46.50;;;;;;5004454;28;19925;-63
2021/12/18 05:13:56;;;;;;;;;;;21.40;46.50;;;;;;5033167;28;21587;-63
2021/12/18 05:16:21;;;;;;;;;;;21.40;46.40;;;;;;5002373;28;19922;-63
2021/12/18 05:18:47;;;;;;;;;;;21.50;46.30;;;;;;5035571;28;20008;-63
2021/12/18 05:21:12;;;;;;;;;;;21.50;46.30;;;;;;5002528;28;19913;-63
2021/12/18 05:23:37;;;;;;;;;;;21.50;46.40;;;;;;5032468;28;20367;-63
2021/12/18 05:26:03;;;;;;;;;;;21.50;46.30;;;;;;5002576;28;20357;-62
2021/12/18 05:28:28;;;;;;;;;;;21.50;46.30;;;;;;5001872;28;19918;-63
2021/12/18 05:30:54;;;;;;;;;;;21.50;46.30;;;;;;5015896;28;19921;-63
2021/12/18 05:33:19;;;;;;;;;;;21.50;46.30;;;;;;5032459;28;19918;-63
2021/12/18 05:35:45;;;;;;;;;;;21.50;46.40;;;;;;5029571;28;19965;-63
2021/12/18 05:38:10;;;;;;;;;;;21.50;46.40;;;;;;5000738;28;20007;-64
2021/12/18 05:40:37;;;;;;;;;;;21.40;46.50;;;;;;5000875;28;19914;-64
2021/12/18 05:43:03;;;;;;;;;;;21.40;46.50;;;;;;4984126;28;19979;-64
2021/12/18 05:45:28;;;;;;;;;;;21.50;46.60;;;;;;5002857;28;19927;-64
2021/12/18 05:47:53;;;;;;;;;;;21.50;46.40;;;;;;5032519;28;19922;-63
2021/12/18 05:50:19;;;;;;;;;;;21.50;46.40;;;;;;4999825;28;19922;-62
2021/12/18 05:52:46;;;;;;;;;;;21.50;46.40;;;;;;5034487;28;19921;-63
2021/12/18 05:55:11;;;;;;;;;;;21.50;46.40;;;;;;5002787;28;20592;-63
2021/12/18 05:57:37;;;;;;;;;;;21.50;46.20;;;;;;5034771;28;19918;-63
2021/12/18 06:00:03;;;;;;;;;;;21.50;46.20;;;;;;5003015;28;19914;-64
2021/12/18 06:02:29;;;;;;;;;;;21.50;46.20;;;;;;5031103;28;19914;-63
2021/12/18 06:04:54;;;;;;;;;;;21.50;46.10;;;;;;5031216;28;19936;-63
2021/12/18 06:07:30;;;;;;;;;;;21.50;46.10;;;;;;5002890;28;21207;-63
2021/12/18 06:09:56;;;;;;;;;;;21.50;46.10;;;;;;5004609;28;19936;-63
2021/12/18 06:12:22;;;;;;;;;;;21.50;46.10;;;;;;5001735;28;20456;-63
2021/12/18 06:14:47;;;;;;;;;;;21.60;46.10;;;;;;5002547;28;20004;-64
2021/12/18 06:17:13;;;;;;;;;;;21.60;46.10;;;;;;5035698;28;19928;-63
2021/12/18 06:19:38;;;;;;;;;;;21.60;45.90;;;;;;5005901;28;19989;-64
2021/12/18 06:22:04;;;;;;;;;;;21.60;45.90;;;;;;5010810;28;19917;-63
2021/12/18 06:24:29;;;;;;;;;;;21.60;45.80;;;;;;5041879;28;19921;-63
2021/12/18 06:26:55;;;;;;;;;;;21.60;45.80;;;;;;5011233;28;20016;-63
2021/12/18 06:29:21;;;;;;;;;;;21.50;45.70;;;;;;5006612;28;19921;-63
2021/12/18 06:31:46;;;;;;;;;;;21.60;45.80;;;;;;5011160;28;20095;-64
2021/12/18 06:34:12;;;;;;;;;;;21.60;45.80;;;;;;5012824;28;19924;-63
2021/12/18 06:36:38;;;;;;;;;;;21.60;45.70;;;;;;5009760;28;19917;-63
2021/12/18 06:39:03;;;;;;;;;;;21.60;45.80;;;;;;5047214;28;20536;-63
2021/12/18 06:41:29;;;;;;;;;;;21.50;45.70;;;;;;5046180;28;20366;-63
2021/12/18 06:43:54;;;;;;;;;;;21.50;45.70;;;;;;5014086;28;19933;-63
2021/12/18 06:46:20;;;;;;;;;;;21.50;45.70;;;;;;5014940;28;19925;-63
2021/12/18 06:48:45;;;;;;;;;;;21.50;45.70;;;;;;5012929;28;20055;-63
2021/12/18 06:51:11;;;;;;;;;;;21.50;45.80;;;;;;5013386;28;19914;-63
2021/12/18 06:53:36;;;;;;;;;;;21.50;45.90;;;;;;5014258;28;19913;-63
2021/12/18 06:56:03;;;;;;;;;;;21.50;45.70;;;;;;5014931;28;19914;-63
2021/12/18 06:58:29;;;;;;;;;;;21.50;45.70;;;;;;5045643;28;19980;-64
2021/12/18 07:00:54;;;;;;;;;;;21.50;45.70;;;;;;5012724;28;20421;-64
2021/12/18 07:03:20;;;;;;;;;;;21.50;45.70;;;;;;5014791;28;19921;-63
2021/12/18 07:05:46;;;;;;;;;;;21.50;45.70;;;;;;5011491;28;20020;-63
2021/12/18 07:08:12;;;;;;;;;;;21.50;45.70;;;;;;5046074;28;20020;-64
2021/12/18 07:10:37;;;;;;;;;;;21.50;45.70;;;;;;5013833;28;20012;-63
2021/12/18 07:13:02;;;;;;;;;;;21.50;45.70;;;;;;5012780;28;19913;-63
2021/12/18 07:15:28;;;;;;;;;;;21.50;45.70;;;;;;5002828;28;20734;-63
2021/12/18 07:17:54;;;;;;;;;;;21.50;45.70;;;;;;5005544;28;22242;-63
2021/12/18 07:20:19;;;;;;;;;;;21.50;45.70;;;;;;5003992;28;19924;-63
2021/12/18 07:22:45;;;;;;;;;;;21.50;45.70;;;;;;5036078;28;20015;-63
2021/12/18 07:25:10;;;;;;;;;;;21.50;45.70;;;;;;5004636;28;19921;-63
2021/12/18 07:27:36;;;;;;;;;;;21.50;45.70;;;;;;5005510;28;20369;-63
2021/12/18 07:30:02;;;;;;;;;;;21.50;45.70;;;;;;5006677;28;19967;-63
2021/12/18 07:32:28;;;;;;;;;;;21.50;45.70;;;;;;5000769;28;19958;-64
2021/12/18 07:34:54;;;;;;;;;;;21.50;45.70;;;;;;5005519;28;20023;-63
2021/12/18 07:37:19;;;;;;;;;;;21.50;45.70;;;;;;5005737;28;19922;-63
2021/12/18 07:39:45;;;;;;;;;;;21.50;45.70;;;;;;5007340;28;19921;-63
2021/12/18 07:42:10;;;;;;;;;;;21.50;45.70;;;;;;5005080;28;20261;-63
2021/12/18 07:44:36;;;;;;;;;;;21.40;45.60;;;;;;5005145;28;20257;-63
2021/12/18 07:47:01;;;;;;;;;;;21.40;45.60;;;;;;5003568;28;19917;-63
2021/12/18 07:49:27;;;;;;;;;;;21.40;45.60;;;;;;5006036;28;19920;-63
2021/12/18 07:51:54;;;;;;;;;;;21.50;45.70;;;;;;5004684;28;19918;-63
2021/12/18 07:54:20;;;;;;;;;;;21.50;45.70;;;;;;5035578;28;19917;-63
2021/12/18 07:56:45;;;;;;;;;;;21.40;45.60;;;;;;5007092;28;19940;-64
2021/12/18 07:59:11;;;;;;;;;;;21.50;45.70;;;;;;5006431;28;19925;-63
2021/12/18 08:01:36;;;;;;;;;;;21.50;45.50;;;;;;5002355;28;20377;-63
2021/12/18 08:04:01;;;;;;;;;;;21.50;45.40;;;;;;5007507;28;20425;-64
2021/12/18 08:06:27;;;;;;;;;;;21.50;45.40;;;;;;5002088;28;20353;-63
2021/12/18 08:08:52;;;;;;;;;;;21.50;45.40;;;;;;5003921;28;19914;-63
2021/12/18 08:11:18;;;;;;;;;;;21.50;45.40;;;;;;5001782;28;19913;-63
2021/12/18 08:13:43;;;;;;;;;;;21.40;45.30;;;;;;5004296;28;19918;-63
2021/12/18 08:16:09;;;;;;;;;;;21.50;45.40;;;;;;5030482;28;20340;-64
2021/12/18 08:18:34;;;;;;;;;;;21.40;45.30;;;;;;5005133;28;20008;-63
2021/12/18 08:21:00;;;;;;;;;;;21.40;45.30;;;;;;5003252;28;19913;-63
2021/12/18 08:23:25;;;;;;;;;;;21.40;45.30;;;;;;5004405;28;19925;-63
2021/12/18 08:25:51;;;;;;;;;;;21.50;45.40;;;;;;5002853;28;19922;-63
2021/12/18 08:28:16;;;;;;;;;;;21.50;45.40;;;;;;5002662;28;20003;-63
2021/12/18 08:30:41;;;;;;;;;;;21.50;45.40;;;;;;5004768;28;20393;-63
2021/12/18 08:33:07;;;;;;;;;;;21.50;45.50;;;;;;5018183;28;20328;-63
2021/12/18 08:35:32;;;;;;;;;;;21.40;45.40;;;;;;5001512;28;19914;-63
2021/12/18 08:37:58;;;;;;;;;;;21.40;46.00;;;;;;5005106;28;19914;-63
2021/12/18 08:40:23;;;;;;;;;;;21.40;45.40;;;;;;5001278;28;19922;-63
2021/12/18 08:42:49;;;;;;;;;;;21.50;45.40;;;;;;5000980;28;20377;-63
2021/12/18 08:45:14;;;;;;;;;;;21.40;45.30;;;;;;5002173;28;20014;-63
2021/12/18 08:47:40;;;;;;;;;;;21.50;45.40;;;;;;5033831;28;20000;-63
2021/12/18 08:50:06;;;;;;;;;;;21.50;45.30;;;;;;5001660;28;19941;-63
2021/12/18 08:52:32;;;;;;;;;;;21.50;45.30;;;;;;5003546;28;19996;-63
2021/12/18 08:54:58;;;;;;;;;;;21.50;45.20;;;;;;4999925;28;19920;-63
2021/12/18 08:57:23;;;;;;;;;;;21.50;45.20;;;;;;5002964;28;19961;-63
2021/12/18 08:59:49;;;;;;;;;;;21.50;45.20;;;;;;5002530;28;19961;-63
2021/12/18 09:02:14;;;;;;;;;;;21.50;45.30;;;;;;5003807;28;20377;-64
2021/12/18 09:04:40;;;;;;;;;;;21.40;45.20;;;;;;5002017;28;19929;-63
2021/12/18 09:07:05;;;;;;;;;;;21.40;45.20;;;;;;5004546;28;20413;-63
2021/12/18 09:09:31;;;;;;;;;;;21.40;45.20;;;;;;5033052;28;19914;-63
2021/12/18 09:11:56;;;;;;;;;;;21.50;45.30;;;;;;5004009;28;20358;-64
2021/12/18 09:14:22;;;;;;;;;;;21.50;45.30;;;;;;5004711;28;19917;-64
2021/12/18 09:16:47;;;;;;;;;;;21.50;45.30;;;;;;5000899;28;20005;-63
2021/12/18 09:19:13;;;;;;;;;;;21.50;45.40;;;;;;5002966;28;19922;-63
2021/12/18 09:21:38;;;;;;;;;;;21.50;45.40;;;;;;5015174;28;19917;-63
2021/12/18 09:24:04;;;;;;;;;;;21.50;45.40;;;;;;5004195;28;19969;-63
2021/12/18 09:26:29;;;;;;;;;;;21.40;45.40;;;;;;5029657;28;20016;-63
2021/12/18 09:28:55;;;;;;;;;;;21.40;45.40;;;;;;5002668;28;19948;-63
2021/12/18 09:31:20;;;;;;;;;;;21.40;45.60;;;;;;5002637;28;19922;-63
2021/12/18 09:33:46;;;;;;;;;;;21.40;45.60;;;;;;5031585;28;19922;-63
2021/12/18 09:36:11;;;;;;;;;;;21.40;45.60;;;;;;5001431;28;19971;-63
2021/12/18 09:38:36;;;;;;;;;;;21.40;45.60;;;;;;5002459;28;20399;-64
2021/12/18 09:41:02;;;;;;;;;;;21.40;45.60;;;;;;5000984;28;20350;-63
2021/12/18 09:43:29;;;;;;;;;;;21.40;45.60;;;;;;5031669;28;19918;-63
2021/12/18 09:46:04;;;;;;;;;;;21.40;45.60;;;;;;5002017;28;19945;-63
2021/12/18 09:48:30;;;;;;;;;;;21.40;45.60;;;;;;5028103;28;20486;-63
2021/12/18 09:50:57;;;;;;;;;;;21.30;45.50;;;;;;5031144;28;19921;-63
2021/12/18 09:53:23;;;;;;;;;;;21.40;45.60;;;;;;5030809;28;19964;-63
2021/12/18 09:55:48;;;;;;;;;;;21.30;45.50;;;;;;4997706;28;19972;-64
2021/12/18 09:58:13;;;;;;;;;;;21.30;45.50;;;;;;5029771;28;19931;-63
2021/12/18 10:00:39;;;;;;;;;;;21.30;45.50;;;;;;5029965;28;19925;-63
2021/12/18 10:03:04;;;;;;;;;;;21.30;46.20;;;;;;5003359;28;20032;-63
2021/12/18 10:05:36;;;;;;;;;;;21.30;45.50;;;;;;4997769;28;19965;-63
2021/12/18 10:08:05;;;;;;;;;;;21.40;45.70;;;;;;5016629;28;20373;-64
2021/12/18 10:10:30;;;;;;;;;;;21.30;45.60;;;;;;5015323;28;19918;-63
2021/12/18 10:13:05;;;;;;;;;;;21.30;45.60;;;;;;5001739;28;19921;-63
2021/12/18 10:15:31;;;;;;;;;;;21.30;45.60;;;;;;5032870;28;21711;-64
2021/12/18 10:18:09;;;;;;;;;;;21.30;45.70;;;;;;5000989;28;20770;-63
2021/12/18 10:20:35;;;;;;;;;;;21.30;45.60;;;;;;5001877;28;19917;-63
2021/12/18 10:23:05;;;;;;;;;;;21.40;45.60;;;;;;5031753;28;19923;-63
2021/12/18 10:25:37;;;;;;;;;;;21.30;45.60;;;;;;4999269;28;19984;-63
2021/12/18 10:28:14;;;;;;;;;;;21.40;45.80;;;;;;5004156;28;20004;-63
2021/12/18 10:30:47;;;;;;;;;;;21.30;45.80;;;;;;4983628;28;20031;-63
2021/12/18 10:33:12;;;;;;;;;;;21.30;45.80;;;;;;5032893;28;19917;-63
2021/12/18 10:35:45;;;;;;;;;;;21.40;45.80;;;;;;4999100;28;20384;-64
2021/12/18 10:38:30;;;;;;;;;;;21.40;45.80;;;;;;5016477;28;20019;-64
2021/12/18 10:40:56;;;;;;;;;;;21.40;45.80;;;;;;4997067;28;20047;-63
2021/12/18 10:43:21;;;;;;;;;;;21.40;45.80;;;;;;5005234;28;20008;-62
2021/12/18 10:45:47;;;;;;;;;;;21.40;45.90;;;;;;5009501;28;19917;-64
2021/12/18 10:48:13;;;;;;;;;;;21.30;45.90;;;;;;5026451;28;19914;-64
2021/12/18 10:50:39;;;;;;;;;;;21.30;46.00;;;;;;5042248;28;19909;-63
2021/12/18 10:53:12;;;;;;;;;;;21.30;46.10;;;;;;5026375;28;20297;-63
2021/12/18 10:55:58;;;;;;;;;;;21.40;46.30;;;;;;5010564;28;20373;-63
2021/12/18 10:58:33;;;;;;;;;;;21.40;46.30;;;;;;5009576;28;20313;-63
2021/12/18 11:00:58;;;;;;;;;;;21.40;46.40;;;;;;5000776;28;19996;-63
2021/12/18 11:03:24;;;;;;;;;;;21.30;46.50;;;;;;5010992;28;19976;-62
2021/12/18 11:06:08;;;;;;;;;;;21.30;46.70;;;;;;5010274;28;19925;-63
2021/12/18 11:08:36;;;;;;;;;;;21.30;46.90;;;;;;5007689;28;19914;-64
2021/12/18 11:13:50;;;;;;;;;;;21.40;47.20;;;;;;5037812;28;19924;-63
2021/12/18 11:16:16;;;;;;;;;;;21.40;47.90;;;;;;5010987;28;19914;-62
2021/12/18 11:18:42;;;;;;;;;;;21.40;47.40;;;;;;4994087;28;19952;-63
2021/12/18 11:21:08;;;;;;;;;;;21.40;47.50;;;;;;5045569;28;19949;-63
2021/12/18 11:23:37;;;;;;;;;;;21.30;47.50;;;;;;5008056;28;19936;-63
2021/12/18 11:26:03;;;;;;;;;;;21.40;48.40;;;;;;5034692;28;20360;-63
2021/12/18 11:28:28;;;;;;;;;;;21.40;47.70;;;;;;5005632;28;20012;-64
2021/12/18 11:30:54;;;;;;;;;;;21.40;48.00;;;;;;5005819;28;20508;-63
2021/12/18 11:33:19;;;;;;;;;;;21.40;48.00;;;;;;5006947;28;20039;-63
2021/12/18 11:35:45;;;;;;;;;;;21.30;47.90;;;;;;5033482;28;19914;-63
2021/12/18 11:38:12;;;;;;;;;;;21.40;47.90;;;;;;5005997;28;19921;-63
2021/12/18 11:40:38;;;;;;;;;;;21.30;47.70;;;;;;5003261;28;19929;-63
2021/12/18 11:43:07;;;;;;;;;;;21.30;47.70;;;;;;5034486;28;19921;-63
2021/12/18 11:45:34;;;;;;;;;;;21.30;47.70;;;;;;5005176;28;20330;-63
2021/12/18 11:48:00;;;;;;;;;;;21.30;47.60;;;;;;5005756;28;19937;-63
2021/12/18 11:50:27;;;;;;;;;;;21.30;47.50;;;;;;5002863;28;19917;-63
2021/12/18 11:52:53;;;;;;;;;;;21.30;47.50;;;;;;5004845;28;19921;-64
2021/12/18 11:55:19;;;;;;;;;;;21.30;47.60;;;;;;5017324;28;20280;-63
2021/12/18 11:57:48;;;;;;;;;;;21.30;47.50;;;;;;5006671;28;19919;-63
2021/12/18 12:00:21;;;;;;;;;;;21.30;47.50;;;;;;5005867;28;19965;-63
2021/12/18 12:02:47;;;;;;;;;;;21.30;47.40;;;;;;5005623;28;19915;-63
2021/12/18 12:05:13;;;;;;;;;;;21.30;47.40;;;;;;4985331;28;20035;-63
2021/12/18 12:07:39;;;;;;;;;;;21.30;47.40;;;;;;5033820;28;20020;-63
2021/12/18 12:10:46;;;;;;;;;;;21.30;47.40;;;;;;5004922;28;20362;-63
2021/12/18 12:13:09;;;;;;;;;;;21.30;47.30;;;;;;5002255;28;19920;-63
2021/12/18 12:15:34;;;;;;;;;;;21.30;47.30;;;;;;4998818;28;20753;-63
2021/12/18 12:18:00;;;;;;;;;;;21.30;47.40;;;;;;5004336;28;20369;-63
2021/12/18 12:20:39;;;;;;;;;;;21.30;47.40;;;;;;5037777;28;20419;-64
2021/12/18 12:23:05;;;;;;;;;;;21.30;47.40;;;;;;5013483;28;20006;-63
2021/12/18 12:25:34;;;;;;;;;;;21.30;47.40;;;;;;5013047;28;20063;-63
2021/12/18 12:28:02;;;;;;;;;;;21.30;47.30;;;;;;5010569;28;19921;-63
2021/12/18 12:30:28;;;;;;;;;;;21.30;47.30;;;;;;5041823;28;19914;-64
2021/12/18 12:32:58;;;;;;;;;;;21.30;47.30;;;;;;5009189;28;19917;-63
2021/12/18 12:35:23;;;;;;;;;;;21.30;47.40;;;;;;5030703;28;19924;-64
2021/12/18 12:37:50;;;;;;;;;;;21.30;47.30;;;;;;5011142;28;19918;-63
2021/12/18 12:40:16;;;;;;;;;;;21.30;47.30;;;;;;5010518;28;19913;-63
2021/12/18 12:43:02;;;;;;;;;;;21.30;47.30;;;;;;5011289;28;19914;-63
2021/12/18 12:45:35;;;;;;;;;;;21.30;47.30;;;;;;5012548;28;19949;-63
2021/12/18 12:48:01;;;;;;;;;;;21.30;47.30;;;;;;5004835;28;19913;-63
2021/12/18 12:50:27;;;;;;;;;;;21.30;47.30;;;;;;5025295;28;20243;-63
2021/12/18 12:52:53;;;;;;;;;;;21.30;47.30;;;;;;5011299;28;19972;-63
2021/12/18 12:55:19;;;;;;;;;;;21.30;47.40;;;;;;5026503;28;19921;-63
2021/12/18 12:57:55;;;;;;;;;;;21.30;47.30;;;;;;5010563;28;20377;-63
2021/12/18 13:00:21;;;;;;;;;;;21.30;47.40;;;;;;5007526;28;19929;-63
2021/12/18 13:02:55;;;;;;;;;;;21.30;47.40;;;;;;5011459;28;20366;-64
2021/12/18 13:05:20;;;;;;;;;;;21.30;47.40;;;;;;5010248;28;19976;-63
2021/12/18 13:07:46;;;;;;;;;;;21.30;47.40;;;;;;5011509;28;19928;-63
2021/12/18 13:10:15;;;;;;;;;;;21.30;47.40;;;;;;5010203;28;22677;-63
2021/12/18 13:12:54;;;;;;;;;;;21.30;47.30;;;;;;5012082;28;19921;-63
2021/12/18 13:15:20;;;;;;;;;;;21.30;47.40;;;;;;5041032;28;19921;-63
2021/12/18 13:17:46;;;;;;;;;;;21.30;47.30;;;;;;5011992;28;20356;-63
2021/12/18 13:20:11;;;;;;;;;;;21.30;47.30;;;;;;5009895;28;19913;-63
2021/12/18 13:22:37;;;;;;;;;;;21.30;47.30;;;;;;5009451;28;19995;-63
2021/12/18 13:25:09;;;;;;;;;;;21.30;47.30;;;;;;5005990;28;19925;-63
2021/12/18 13:27:35;;;;;;;;;;;21.30;47.30;;;;;;5002646;28;19967;-63
2021/12/18 13:30:10;;;;;;;;;;;21.30;47.30;;;;;;4991741;28;20045;-63
2021/12/18 13:32:35;;;;;;;;;;;21.30;47.30;;;;;;5010152;28;19922;-63
2021/12/18 13:35:01;;;;;;;;;;;21.30;47.20;;;;;;5009642;28;19921;-63
2021/12/18 13:37:26;;;;;;;;;;;21.40;47.30;;;;;;5008063;28;19917;-62
2021/12/18 13:39:53;;;;;;;;;;;21.40;47.40;;;;;;5011343;28;20041;-61
2021/12/18 13:42:19;;;;;;;;;;;21.40;47.50;;;;;;4992991;28;19913;-61
2021/12/18 13:44:48;;;;;;;;;;;21.40;47.50;;;;;;5010589;28;19921;-62
2021/12/18 13:47:15;;;;;;;;;;;21.40;47.30;;;;;;4994461;28;20006;-61
2021/12/18 13:49:40;;;;;;;;;;;21.50;47.20;;;;;;5011561;28;20375;-61
2021/12/18 13:52:06;;;;;;;;;;;21.50;47.20;;;;;;5011839;28;20012;-62
2021/12/18 13:54:33;;;;;;;;;;;21.50;47.10;;;;;;5011039;28;19917;-62
2021/12/18 13:56:58;;;;;;;;;;;21.50;47.00;;;;;;5011986;28;19909;-62
2021/12/18 13:59:24;;;;;;;;;;;21.50;47.00;;;;;;5012251;28;19976;-62
2021/12/18 14:01:50;;;;;;;;;;;21.50;47.00;;;;;;5011220;28;19916;-62
2021/12/18 14:04:20;;;;;;;;;;;21.50;47.00;;;;;;5011759;28;19960;-61
2021/12/18 14:06:46;;;;;;;;;;;21.40;47.00;;;;;;5006530;28;19913;-62
2021/12/18 14:09:23;;;;;;;;;;;21.40;47.00;;;;;;5043578;28;19920;-62
2021/12/18 14:11:57;;;;;;;;;;;21.40;46.90;;;;;;5049322;28;20384;-62
2021/12/18 14:14:33;;;;;;;;;;;21.40;47.60;;;;;;5009754;28;19964;-62
2021/12/18 14:16:58;;;;;;;;;;;21.40;47.00;;;;;;4991901;28;19925;-62
2021/12/18 14:19:25;;;;;;;;;;;21.40;47.00;;;;;;5009211;28;20324;-62
2021/12/18 14:21:50;;;;;;;;;;;21.40;47.10;;;;;;5010863;28;19914;-61
2021/12/18 14:24:16;;;;;;;;;;;21.40;47.10;;;;;;5011787;28;19918;-61
2021/12/18 14:26:53;;;;;;;;;;;21.40;47.20;;;;;;5011711;28;20250;-62
2021/12/18 14:29:19;;;;;;;;;;;21.40;47.20;;;;;;5043544;28;20384;-62
2021/12/18 14:31:45;;;;;;;;;;;21.40;47.30;;;;;;5011580;28;20016;-61
2021/12/18 14:34:21;;;;;;;;;;;21.40;47.30;;;;;;5011833;28;20378;-62
2021/12/18 14:37:05;;;;;;;;;;;21.30;47.30;;;;;;5036539;28;19941;-61
2021/12/18 14:39:33;;;;;;;;;;;21.30;47.30;;;;;;5008832;28;20328;-61
2021/12/18 14:42:14;;;;;;;;;;;21.30;47.30;;;;;;5011101;28;19945;-62
2021/12/18 14:44:45;;;;;;;;;;;21.30;47.30;;;;;;5011393;28;19917;-61
2021/12/18 14:47:16;;;;;;;;;;;21.30;47.30;;;;;;5011758;28;20068;-61
2021/12/18 14:49:54;;;;;;;;;;;21.30;47.30;;;;;;5011046;28;19909;-61
2021/12/18 14:52:20;;;;;;;;;;;21.30;47.30;;;;;;4994581;28;20000;-62
2021/12/18 14:54:47;;;;;;;;;;;21.30;47.30;;;;;;5010914;28;20396;-62
2021/12/18 14:57:17;;;;;;;;;;;21.30;47.30;;;;;;5012150;28;19914;-62
2021/12/18 14:59:42;;;;;;;;;;;21.30;47.30;;;;;;5015405;28;19909;-62